Louisiana, Missouri
Current Conditions -  °F | °C
As of 9:15 AM on Wednesday 26 Nov 2014 (Local Time) from KPPQ Reporting Station
Scattered Clouds Scattered Clouds  
Wind Chill: 23°   Ceiling: Unl
Heat Index: 32°   Visibility: 10mi
Dew Point: 28°   Wind: 10mph
Humidity: 87%   Direction: 130°SE
Pressure: 30.03"   Gusts: NA
Location:  39.45°N, 91.05°W
Report Text: KPPQ 261515Z AUTO 13009KT 10SM SCT048 SCT060 00/M02 A3003 RMK AO2 T10021021 PWINO
Loading
Personal Weather Stations






























Interactive Weather Map New forecast layout! Learn more

10-Day Weather Forecast

Advertisements
Track Severe Weather on mobile